Time;durP1;ratioP1;P1;durP2;ratioP2;P2;SDS_P1;SDS_P2;PMS_P1;PMS_P2;Temp;Humidity;BMP_temperature;BMP_pressure;BME280_temperature;BME280_humidity;BME280_pressure;Samples;Min_cycle;Max_cycle;Signal;HPM_P1;HPM_P2
2023/10/07 00:00:26;;;;;;;8.18;4.00;;;;;;;;;;474572;28;1328;-71
2023/10/07 00:00:51;;;;;;;8.18;3.80;;;;;;;;;;480154;28;1390;-72
2023/10/07 00:01:08;;;;;;;8.00;4.00;;;;;;;;;;477689;28;1548;-71
2023/10/07 00:01:27;;;;;;;7.38;4.00;;;;;;;;;;479698;28;1101;-71
2023/10/07 00:01:45;;;;;;;8.18;4.00;;;;;;;;;;476835;28;1413;-72
2023/10/07 00:02:12;;;;;;;7.85;4.20;;;;;;;;;;473370;28;1551;-71
2023/10/07 00:02:30;;;;;;;5.97;3.78;;;;;;;;;;480249;28;1133;-72
2023/10/07 00:02:46;;;;;;;6.70;3.90;;;;;;;;;;475894;28;1590;-72
2023/10/07 00:03:05;;;;;;;6.25;3.60;;;;;;;;;;478966;28;1240;-72
2023/10/07 00:03:20;;;;;;;7.05;3.50;;;;;;;;;;474604;28;1477;-72
2023/10/07 00:03:38;;;;;;;7.15;3.72;;;;;;;;;;478183;28;1375;-71
2023/10/07 00:03:58;;;;;;;7.68;3.75;;;;;;;;;;475256;28;1422;-72
2023/10/07 00:04:14;;;;;;;6.72;3.70;;;;;;;;;;474932;28;997;-71
2023/10/07 00:04:30;;;;;;;6.63;3.88;;;;;;;;;;481100;28;974;-71
2023/10/07 00:04:46;;;;;;;7.43;3.72;;;;;;;;;;476767;28;1113;-70
2023/10/07 00:05:04;;;;;;;7.35;3.85;;;;;;;;;;480567;28;1133;-71
2023/10/07 00:05:32;;;;;;;7.18;4.00;;;;;;;;;;474335;28;1087;-71
2023/10/07 00:05:50;;;;;;;7.32;4.07;;;;;;;;;;477797;28;1071;-72
2023/10/07 00:06:09;;;;;;;7.50;4.15;;;;;;;;;;478539;28;1073;-70
2023/10/07 00:06:29;;;;;;;7.63;3.85;;;;;;;;;;472283;28;1010;-72
2023/10/07 00:06:45;;;;;;;6.90;3.70;;;;;;;;;;472454;28;1387;-71
2023/10/07 00:07:03;;;;;;;7.55;3.83;;;;;;;;;;476771;28;1340;-71
2023/10/07 00:07:20;;;;;;;6.80;3.70;;;;;;;;;;474985;28;1438;-73
2023/10/07 00:07:35;;;;;;;7.18;3.72;;;;;;;;;;479336;28;1445;-71
2023/10/07 00:07:50;;;;;;;7.83;4.00;;;;;;;;;;473787;28;1152;-72
2023/10/07 00:08:08;;;;;;;7.32;3.92;;;;;;;;;;477701;28;1019;-71
2023/10/07 00:08:26;;;;;;;6.72;3.80;;;;;;;;;;475991;28;1414;-72
2023/10/07 00:08:42;;;;;;;6.70;3.75;;;;;;;;;;477018;28;969;-71
2023/10/07 00:08:58;;;;;;;6.30;3.92;;;;;;;;;;477438;28;1207;-71
2023/10/07 00:09:15;;;;;;;6.68;3.92;;;;;;;;;;470284;28;1027;-71
2023/10/07 00:09:31;;;;;;;6.15;3.78;;;;;;;;;;475553;28;1140;-71
2023/10/07 00:09:50;;;;;;;6.93;3.92;;;;;;;;;;475687;28;959;-72
2023/10/07 00:10:06;;;;;;;7.82;3.97;;;;;;;;;;476105;28;1418;-71
2023/10/07 00:10:35;;;;;;;6.90;3.78;;;;;;;;;;467677;28;1405;-71
2023/10/07 00:10:51;;;;;;;8.25;4.00;;;;;;;;;;472270;28;867;-71
2023/10/07 00:11:11;;;;;;;8.65;3.88;;;;;;;;;;474604;28;1237;-71
2023/10/07 00:11:27;;;;;;;7.50;3.80;;;;;;;;;;478303;28;1215;-71
2023/10/07 00:11:46;;;;;;;9.20;4.10;;;;;;;;;;475760;28;1134;-71
2023/10/07 00:12:02;;;;;;;8.63;4.07;;;;;;;;;;472896;28;1573;-71
2023/10/07 00:12:19;;;;;;;7.97;4.00;;;;;;;;;;476471;28;1100;-73
2023/10/07 00:12:35;;;;;;;7.07;3.60;;;;;;;;;;479208;28;1952;-72
2023/10/07 00:12:52;;;;;;;6.88;3.55;;;;;;;;;;474403;28;965;-71
2023/10/07 00:13:12;;;;;;;7.60;3.75;;;;;;;;;;469632;28;1174;-71
2023/10/07 00:13:30;;;;;;;6.68;3.80;;;;;;;;;;476952;28;1074;-72
2023/10/07 00:13:47;;;;;;;7.82;3.92;;;;;;;;;;474590;28;1387;-71
2023/10/07 00:14:09;;;;;;;8.65;4.05;;;;;;;;;;468462;28;1212;-71
2023/10/07 00:14:30;;;;;;;9.88;4.05;;;;;;;;;;468901;28;1150;-72
2023/10/07 00:14:45;;;;;;;7.18;3.80;;;;;;;;;;473768;28;1256;-71
2023/10/07 00:15:01;;;;;;;6.53;3.88;;;;;;;;;;471985;28;1093;-71
2023/10/07 00:15:17;;;;;;;8.35;4.10;;;;;;;;;;473089;28;1126;-71
2023/10/07 00:15:46;;;;;;;8.85;4.07;;;;;;;;;;476275;28;1051;-72
2023/10/07 00:16:02;;;;;;;8.30;3.80;;;;;;;;;;475271;28;1059;-71
2023/10/07 00:16:18;;;;;;;8.53;3.93;;;;;;;;;;474906;28;1148;-71
2023/10/07 00:16:36;;;;;;;8.07;4.00;;;;;;;;;;479054;28;1008;-71
2023/10/07 00:16:51;;;;;;;9.20;4.25;;;;;;;;;;477679;28;1149;-72
2023/10/07 00:17:17;;;;;;;8.27;4.03;;;;;;;;;;480143;28;1458;-71
2023/10/07 00:17:39;;;;;;;7.47;3.80;;;;;;;;;;481731;28;906;-71
2023/10/07 00:18:12;;;;;;;7.70;3.88;;;;;;;;;;478299;28;1553;-73
2023/10/07 00:18:28;;;;;;;7.75;4.10;;;;;;;;;;479767;28;1092;-72
2023/10/07 00:18:45;;;;;;;5.93;3.80;;;;;;;;;;477127;28;1104;-71
2023/10/07 00:19:00;;;;;;;5.90;3.70;;;;;;;;;;473309;28;1528;-70
2023/10/07 00:19:16;;;;;;;6.85;3.80;;;;;;;;;;472201;28;1403;-71
2023/10/07 00:19:33;;;;;;;7.37;3.90;;;;;;;;;;478467;28;1355;-72
2023/10/07 00:19:48;;;;;;;8.55;4.10;;;;;;;;;;474285;28;1104;-71
2023/10/07 00:20:05;;;;;;;8.00;3.92;;;;;;;;;;472663;28;895;-70
2023/10/07 00:20:22;;;;;;;7.32;3.85;;;;;;;;;;476533;28;1248;-72
2023/10/07 00:20:50;;;;;;;7.10;3.90;;;;;;;;;;477950;28;1321;-71
2023/10/07 00:21:07;;;;;;;8.55;4.25;;;;;;;;;;479296;28;1126;-71
2023/10/07 00:21:27;;;;;;;8.48;4.10;;;;;;;;;;476746;28;1069;-72
2023/10/07 00:21:55;;;;;;;7.57;4.05;;;;;;;;;;476403;28;1169;-71
2023/10/07 00:22:13;;;;;;;7.15;3.63;;;;;;;;;;471692;28;994;-71
2023/10/07 00:22:40;;;;;;;7.45;3.78;;;;;;;;;;478488;28;1045;-71
2023/10/07 00:23:21;;;;;;;7.47;3.92;;;;;;;;;;466442;28;1624;-72
2023/10/07 00:23:37;;;;;;;6.47;4.03;;;;;;;;;;475740;28;966;-71
2023/10/07 00:23:53;;;;;;;6.78;3.92;;;;;;;;;;479868;28;977;-71
2023/10/07 00:24:14;;;;;;;7.20;4.18;;;;;;;;;;473399;28;1464;-73
2023/10/07 00:24:36;;;;;;;6.18;3.60;;;;;;;;;;473479;28;1613;-72
2023/10/07 00:24:52;;;;;;;7.75;3.92;;;;;;;;;;478485;28;977;-70
2023/10/07 00:25:08;;;;;;;8.23;4.13;;;;;;;;;;474907;28;1372;-70
2023/10/07 00:26:09;;;;;;;7.68;4.10;;;;;;;;;;475217;28;989;-71
2023/10/07 00:27:26;;;;;;;7.40;3.92;;;;;;;;;;467269;28;1261;-71
2023/10/07 00:27:42;;;;;;;7.30;3.78;;;;;;;;;;477098;28;1414;-71
2023/10/07 00:27:58;;;;;;;7.97;3.70;;;;;;;;;;477517;28;1525;-71
2023/10/07 00:28:32;;;;;;;8.00;3.87;;;;;;;;;;474574;28;1069;-72
2023/10/07 00:29:12;;;;;;;7.03;4.00;;;;;;;;;;476008;28;950;-70
2023/10/07 00:30:13;;;;;;;8.60;4.32;;;;;;;;;;478844;28;1978;-71
2023/10/07 00:30:30;;;;;;;7.40;3.90;;;;;;;;;;481468;28;918;-71
2023/10/07 00:30:46;;;;;;;7.40;4.07;;;;;;;;;;482756;28;964;-70
2023/10/07 00:31:06;;;;;;;8.23;4.30;;;;;;;;;;482096;28;1058;-71
2023/10/07 00:31:27;;;;;;;6.97;4.00;;;;;;;;;;477191;28;1573;-74
2023/10/07 00:31:43;;;;;;;6.55;3.80;;;;;;;;;;475679;28;1523;-70
2023/10/07 00:31:58;;;;;;;8.45;3.80;;;;;;;;;;479065;28;1165;-72
2023/10/07 00:32:15;;;;;;;8.35;3.80;;;;;;;;;;471746;28;1342;-70
2023/10/07 00:32:32;;;;;;;6.70;3.85;;;;;;;;;;471897;28;1989;-70
2023/10/07 00:32:50;;;;;;;7.60;4.18;;;;;;;;;;477547;28;1519;-71
2023/10/07 00:33:09;;;;;;;8.30;4.10;;;;;;;;;;472601;28;949;-70
2023/10/07 00:33:26;;;;;;;6.93;3.90;;;;;;;;;;477809;28;1352;-70
2023/10/07 00:33:50;;;;;;;7.82;4.32;;;;;;;;;;478179;28;1156;-70
2023/10/07 00:34:13;;;;;;;7.32;4.22;;;;;;;;;;474177;28;1078;-71
2023/10/07 00:34:31;;;;;;;9.07;4.07;;;;;;;;;;477167;28;1062;-70
2023/10/07 00:34:47;;;;;;;8.18;3.90;;;;;;;;;;476282;28;1228;-70
2023/10/07 00:35:05;;;;;;;6.87;3.90;;;;;;;;;;476870;28;1258;-70
2023/10/07 00:35:21;;;;;;;8.27;4.10;;;;;;;;;;476528;28;951;-71
2023/10/07 00:35:37;;;;;;;7.93;4.22;;;;;;;;;;475918;28;1078;-70
2023/10/07 00:35:53;;;;;;;7.55;4.10;;;;;;;;;;478966;28;1069;-72
2023/10/07 00:36:09;;;;;;;7.78;4.15;;;;;;;;;;474981;28;1455;-71
2023/10/07 00:36:49;;;;;;;7.10;4.07;;;;;;;;;;478427;28;924;-72
2023/10/07 00:37:05;;;;;;;7.10;4.07;;;;;;;;;;479142;28;1159;-70
2023/10/07 00:37:23;;;;;;;6.75;4.00;;;;;;;;;;474678;28;963;-71
2023/10/07 00:37:44;;;;;;;6.32;4.03;;;;;;;;;;476646;28;1542;-71
2023/10/07 00:38:01;;;;;;;6.68;4.20;;;;;;;;;;477087;28;936;-71
2023/10/07 00:38:19;;;;;;;6.45;4.10;;;;;;;;;;478217;28;1026;-72
2023/10/07 00:38:42;;;;;;;7.30;4.15;;;;;;;;;;476849;28;1092;-70
2023/10/07 00:38:59;;;;;;;8.98;4.13;;;;;;;;;;478742;28;984;-70
2023/10/07 00:39:20;;;;;;;8.68;4.10;;;;;;;;;;475396;28;947;-70
2023/10/07 00:39:38;;;;;;;7.55;4.47;;;;;;;;;;475867;28;970;-70
2023/10/07 00:39:53;;;;;;;7.13;4.35;;;;;;;;;;480908;28;1317;-71
2023/10/07 00:40:45;;;;;;;7.27;4.13;;;;;;;;;;478016;28;1236;-70
2023/10/07 00:40:55;;;;;;;8.07;4.28;;;;;;;;;;479241;28;2045;-71
2023/10/07 00:41:15;;;;;;;8.38;4.43;;;;;;;;;;478348;28;1148;-70
2023/10/07 00:41:39;;;;;;;7.43;4.20;;;;;;;;;;478929;28;1390;-70
2023/10/07 00:41:58;;;;;;;8.40;4.20;;;;;;;;;;481889;28;1236;-70
2023/10/07 00:42:15;;;;;;;9.15;4.50;;;;;;;;;;475879;28;1013;-71
2023/10/07 00:42:33;;;;;;;8.20;4.25;;;;;;;;;;476692;28;1216;-70
2023/10/07 00:42:50;;;;;;;7.30;4.03;;;;;;;;;;475649;28;1305;-71
2023/10/07 00:43:10;;;;;;;7.45;4.10;;;;;;;;;;476117;28;1107;-70
2023/10/07 00:43:30;;;;;;;7.25;4.20;;;;;;;;;;477623;28;1085;-70
2023/10/07 00:43:46;;;;;;;7.50;4.22;;;;;;;;;;474893;28;1450;-70
2023/10/07 00:44:17;;;;;;;8.43;4.28;;;;;;;;;;477064;28;1215;-70
2023/10/07 00:44:33;;;;;;;7.68;4.22;;;;;;;;;;479432;28;1048;-70
2023/10/07 00:44:52;;;;;;;6.65;3.97;;;;;;;;;;480950;28;1255;-71
2023/10/07 00:45:28;;;;;;;6.70;4.20;;;;;;;;;;474289;28;1192;-71
2023/10/07 00:45:44;;;;;;;9.88;4.43;;;;;;;;;;473981;28;1527;-70
2023/10/07 00:46:27;;;;;;;10.55;4.25;;;;;;;;;;475279;28;1546;-71
2023/10/07 00:46:49;;;;;;;9.95;4.35;;;;;;;;;;473213;28;1237;-70
2023/10/07 00:47:21;;;;;;;7.88;4.20;;;;;;;;;;474956;28;1235;-71
2023/10/07 00:47:40;;;;;;;7.80;4.22;;;;;;;;;;474963;28;1082;-70
2023/10/07 00:48:00;;;;;;;9.88;4.68;;;;;;;;;;478580;28;1078;-71
2023/10/07 00:48:16;;;;;;;8.45;4.20;;;;;;;;;;475232;28;1366;-71
2023/10/07 00:48:47;;;;;;;7.45;4.10;;;;;;;;;;473633;28;1309;-70
2023/10/07 00:49:10;;;;;;;7.47;4.03;;;;;;;;;;475812;28;1049;-70
2023/10/07 00:49:28;;;;;;;6.72;4.22;;;;;;;;;;477967;28;981;-70
2023/10/07 00:50:09;;;;;;;8.48;4.50;;;;;;;;;;471789;28;1328;-70
2023/10/07 00:50:25;;;;;;;8.23;4.30;;;;;;;;;;478684;28;1251;-72
2023/10/07 00:50:42;;;;;;;7.32;4.20;;;;;;;;;;475711;28;1541;-71
2023/10/07 00:50:58;;;;;;;7.40;4.13;;;;;;;;;;480893;28;918;-71
2023/10/07 00:51:17;;;;;;;6.95;4.00;;;;;;;;;;470787;28;1071;-71
2023/10/07 00:51:41;;;;;;;8.38;3.88;;;;;;;;;;474689;28;1366;-70
2023/10/07 00:51:58;;;;;;;9.07;4.30;;;;;;;;;;479108;28;926;-70
2023/10/07 00:52:27;;;;;;;8.52;4.40;;;;;;;;;;475469;28;1547;-70
2023/10/07 00:53:12;;;;;;;6.65;3.75;;;;;;;;;;472454;28;1156;-70
2023/10/07 00:53:30;;;;;;;7.30;3.95;;;;;;;;;;479020;28;1144;-71
2023/10/07 00:53:46;;;;;;;6.47;3.80;;;;;;;;;;479551;28;1073;-71
2023/10/07 00:54:18;;;;;;;6.30;3.80;;;;;;;;;;477064;28;1009;-70
2023/10/07 00:55:34;;;;;;;9.45;4.30;;;;;;;;;;478628;28;1290;-72
2023/10/07 00:55:52;;;;;;;9.20;4.35;;;;;;;;;;480705;28;942;-70
2023/10/07 00:56:07;;;;;;;9.30;4.28;;;;;;;;;;478669;28;1081;-70
2023/10/07 00:56:25;;;;;;;7.27;3.90;;;;;;;;;;478428;28;1745;-72
2023/10/07 00:56:43;;;;;;;7.10;3.97;;;;;;;;;;475401;28;993;-70
2023/10/07 00:57:11;;;;;;;6.50;4.00;;;;;;;;;;480290;28;1112;-71
2023/10/07 00:57:35;;;;;;;7.30;4.20;;;;;;;;;;472060;28;1542;-71
2023/10/07 00:57:54;;;;;;;7.25;3.80;;;;;;;;;;473248;28;975;-71
2023/10/07 00:58:20;;;;;;;7.35;3.90;;;;;;;;;;473760;28;1454;-70
2023/10/07 00:58:36;;;;;;;9.07;3.97;;;;;;;;;;474066;28;1108;-70
2023/10/07 00:58:53;;;;;;;8.77;3.83;;;;;;;;;;472177;28;1434;-70
2023/10/07 00:59:09;;;;;;;6.93;3.80;;;;;;;;;;472022;28;1117;-70
2023/10/07 00:59:25;;;;;;;7.95;4.03;;;;;;;;;;478809;28;909;-72
2023/10/07 00:59:41;;;;;;;8.80;4.00;;;;;;;;;;476563;28;1316;-71
2023/10/07 00:59:59;;;;;;;8.27;3.72;;;;;;;;;;474301;28;1124;-70
2023/10/07 01:00:56;;;;;;;6.75;4.15;;;;;;;;;;475922;28;922;-70
2023/10/07 01:01:12;;;;;;;7.28;4.20;;;;;;;;;;475405;28;1462;-71
2023/10/07 01:01:29;;;;;;;7.68;4.20;;;;;;;;;;478596;28;1150;-71
2023/10/07 01:01:47;;;;;;;7.63;4.22;;;;;;;;;;474578;28;1389;-70
2023/10/07 01:02:16;;;;;;;8.65;4.10;;;;;;;;;;477706;28;1202;-71
2023/10/07 01:02:31;;;;;;;7.32;4.18;;;;;;;;;;476943;28;985;-70
2023/10/07 01:02:51;;;;;;;7.07;4.13;;;;;;;;;;472189;28;1191;-70
2023/10/07 01:03:47;;;;;;;7.75;4.50;;;;;;;;;;478777;28;960;-71
2023/10/07 01:04:07;;;;;;;7.50;4.35;;;;;;;;;;480465;28;966;-70
2023/10/07 01:04:24;;;;;;;7.78;4.43;;;;;;;;;;479299;28;887;-71
2023/10/07 01:04:40;;;;;;;7.50;4.20;;;;;;;;;;478140;28;1082;-71
2023/10/07 01:05:00;;;;;;;7.28;3.90;;;;;;;;;;480413;28;991;-71
2023/10/07 01:05:22;;;;;;;7.80;4.15;;;;;;;;;;479330;28;1049;-72
2023/10/07 01:05:44;;;;;;;8.82;4.30;;;;;;;;;;479057;28;1080;-70
2023/10/07 01:06:22;;;;;;;7.47;4.10;;;;;;;;;;474178;28;931;-70
2023/10/07 01:06:39;;;;;;;8.45;4.50;;;;;;;;;;478570;28;1162;-71
2023/10/07 01:07:00;;;;;;;8.50;4.40;;;;;;;;;;482643;28;1084;-71
2023/10/07 01:07:19;;;;;;;9.40;4.38;;;;;;;;;;478764;28;1004;-71
2023/10/07 01:07:35;;;;;;;8.85;4.47;;;;;;;;;;477761;28;1275;-70
2023/10/07 01:07:53;;;;;;;8.30;4.47;;;;;;;;;;474626;28;1058;-71
2023/10/07 01:08:09;;;;;;;7.78;4.40;;;;;;;;;;479599;28;1604;-70
2023/10/07 01:08:34;;;;;;;7.95;4.07;;;;;;;;;;473805;28;1343;-71
2023/10/07 01:08:50;;;;;;;8.05;4.20;;;;;;;;;;472451;28;1047;-70
2023/10/07 01:09:22;;;;;;;7.87;4.47;;;;;;;;;;474931;28;1194;-71
2023/10/07 01:09:39;;;;;;;7.78;4.07;;;;;;;;;;469702;28;1112;-70
2023/10/07 01:10:03;;;;;;;7.95;4.25;;;;;;;;;;468948;28;1300;-70
2023/10/07 01:10:25;;;;;;;6.63;3.92;;;;;;;;;;474878;28;920;-72
2023/10/07 01:10:54;;;;;;;7.13;4.15;;;;;;;;;;474498;28;1389;-71
2023/10/07 01:11:31;;;;;;;8.35;4.45;;;;;;;;;;479307;28;891;-71
2023/10/07 01:11:57;;;;;;;9.53;4.40;;;;;;;;;;481028;28;934;-72
2023/10/07 01:12:12;;;;;;;7.53;3.90;;;;;;;;;;475660;28;1034;-71
2023/10/07 01:12:36;;;;;;;6.70;4.00;;;;;;;;;;481318;28;1129;-71
2023/10/07 01:12:51;;;;;;;6.78;4.00;;;;;;;;;;473860;28;1569;-72
2023/10/07 01:13:28;;;;;;;7.13;4.22;;;;;;;;;;474418;28;1086;-71
2023/10/07 01:14:05;;;;;;;7.07;4.07;;;;;;;;;;476868;28;953;-70
2023/10/07 01:14:21;;;;;;;6.85;4.07;;;;;;;;;;475666;28;1126;-72
2023/10/07 01:14:42;;;;;;;6.50;4.00;;;;;;;;;;480374;28;1142;-71
2023/10/07 01:14:57;;;;;;;8.65;4.30;;;;;;;;;;475557;28;1262;-71
2023/10/07 01:15:23;;;;;;;8.25;4.35;;;;;;;;;;474423;28;1240;-71
2023/10/07 01:15:39;;;;;;;9.38;4.20;;;;;;;;;;475285;28;1225;-70
2023/10/07 01:15:55;;;;;;;8.87;4.03;;;;;;;;;;476312;28;1230;-71
2023/10/07 01:16:14;;;;;;;8.15;4.18;;;;;;;;;;472776;28;1174;-71
2023/10/07 01:16:52;;;;;;;7.70;4.18;;;;;;;;;;474355;28;1408;-71
2023/10/07 01:17:14;;;;;;;8.05;3.97;;;;;;;;;;475158;28;995;-71
2023/10/07 01:17:30;;;;;;;8.27;4.10;;;;;;;;;;476393;28;1298;-71
2023/10/07 01:17:47;;;;;;;8.52;4.20;;;;;;;;;;474408;28;1291;-71
2023/10/07 01:18:06;;;;;;;7.93;4.50;;;;;;;;;;477881;28;1538;-71
2023/10/07 01:18:21;;;;;;;7.70;4.13;;;;;;;;;;474029;28;1144;-72
2023/10/07 01:18:40;;;;;;;8.00;4.20;;;;;;;;;;476484;28;1189;-71
2023/10/07 01:19:04;;;;;;;7.82;4.30;;;;;;;;;;479905;28;1259;-71
2023/10/07 01:19:52;;;;;;;7.78;4.25;;;;;;;;;;477108;28;876;-72
2023/10/07 01:20:09;;;;;;;7.35;4.00;;;;;;;;;;479652;28;942;-71
2023/10/07 01:20:34;;;;;;;6.97;3.90;;;;;;;;;;480177;28;1098;-72
2023/10/07 01:21:11;;;;;;;7.47;3.92;;;;;;;;;;471569;28;986;-70
2023/10/07 01:21:33;;;;;;;6.53;3.75;;;;;;;;;;477132;28;1271;-71
2023/10/07 01:21:55;;;;;;;7.97;4.07;;;;;;;;;;470040;28;1059;-71
2023/10/07 01:22:18;;;;;;;8.18;4.03;;;;;;;;;;471762;28;893;-71
2023/10/07 01:23:05;;;;;;;7.18;4.10;;;;;;;;;;476947;28;1050;-71
2023/10/07 01:23:24;;;;;;;8.10;4.00;;;;;;;;;;475508;28;1379;-72
2023/10/07 01:23:44;;;;;;;6.93;3.90;;;;;;;;;;477803;28;1125;-71
2023/10/07 01:24:05;;;;;;;7.30;3.97;;;;;;;;;;480083;28;1073;-72
2023/10/07 01:24:45;;;;;;;8.70;3.95;;;;;;;;;;476288;28;962;-70
2023/10/07 01:25:05;;;;;;;6.78;3.97;;;;;;;;;;477812;28;1410;-71
2023/10/07 01:25:21;;;;;;;8.18;4.20;;;;;;;;;;477850;28;1246;-71
2023/10/07 01:25:43;;;;;;;7.28;4.20;;;;;;;;;;478210;28;1402;-71
2023/10/07 01:25:59;;;;;;;7.95;4.35;;;;;;;;;;475917;28;1066;-71
2023/10/07 01:26:15;;;;;;;7.28;4.07;;;;;;;;;;471536;28;1141;-71
2023/10/07 01:26:33;;;;;;;6.73;4.00;;;;;;;;;;478574;28;1384;-72
2023/10/07 01:26:48;;;;;;;6.45;3.88;;;;;;;;;;474943;28;1654;-71
2023/10/07 01:28:21;;;;;;;7.60;4.13;;;;;;;;;;465692;29;964;-71
2023/10/07 01:28:40;;;;;;;6.40;3.90;;;;;;;;;;468974;28;1322;-70
2023/10/07 01:29:30;;;;;;;5.97;3.83;;;;;;;;;;483010;28;950;-71
2023/10/07 01:29:50;;;;;;;7.43;4.10;;;;;;;;;;475576;28;1158;-71
2023/10/07 01:30:13;;;;;;;7.40;4.28;;;;;;;;;;480069;28;950;-71
2023/10/07 01:30:30;;;;;;;7.57;4.03;;;;;;;;;;481620;28;1424;-71
2023/10/07 01:31:07;;;;;;;8.90;4.32;;;;;;;;;;474960;28;1415;-71
2023/10/07 01:31:23;;;;;;;7.85;4.07;;;;;;;;;;477710;28;1704;-71
2023/10/07 01:31:43;;;;;;;8.45;4.38;;;;;;;;;;473685;28;1321;-71
2023/10/07 01:32:12;;;;;;;8.25;4.50;;;;;;;;;;470949;28;1407;-71
2023/10/07 01:32:33;;;;;;;8.57;4.30;;;;;;;;;;469102;28;1308;-71
2023/10/07 01:32:53;;;;;;;6.78;4.20;;;;;;;;;;475353;28;994;-71
2023/10/07 01:33:24;;;;;;;7.97;4.10;;;;;;;;;;475386;28;1702;-71
2023/10/07 01:34:00;;;;;;;7.27;4.40;;;;;;;;;;469011;28;1324;-71
2023/10/07 01:34:16;;;;;;;6.57;4.10;;;;;;;;;;470626;28;1218;-71
2023/10/07 01:34:35;;;;;;;7.13;4.22;;;;;;;;;;478675;28;1546;-71
2023/10/07 01:34:52;;;;;;;8.20;4.53;;;;;;;;;;479676;28;950;-72
2023/10/07 01:35:11;;;;;;;8.02;4.43;;;;;;;;;;477416;28;954;-72
2023/10/07 01:35:30;;;;;;;7.47;4.20;;;;;;;;;;476589;28;1534;-71
2023/10/07 01:36:40;;;;;;;7.55;4.07;;;;;;;;;;467232;29;1045;-70
2023/10/07 01:36:57;;;;;;;7.88;4.13;;;;;;;;;;473203;29;1403;-72
2023/10/07 01:37:15;;;;;;;7.30;3.95;;;;;;;;;;469177;29;1870;-71
2023/10/07 01:37:41;;;;;;;7.10;3.90;;;;;;;;;;475070;29;1070;-71
2023/10/07 01:37:59;;;;;;;8.90;4.55;;;;;;;;;;474425;29;951;-71
2023/10/07 01:38:18;;;;;;;11.13;4.80;;;;;;;;;;470601;28;1576;-71
2023/10/07 01:38:33;;;;;;;9.70;4.90;;;;;;;;;;475482;28;1151;-71
2023/10/07 01:38:51;;;;;;;9.25;4.70;;;;;;;;;;470397;28;1377;-71
2023/10/07 01:39:07;;;;;;;8.50;4.40;;;;;;;;;;473915;28;1438;-71
2023/10/07 01:39:24;;;;;;;8.70;4.40;;;;;;;;;;473514;28;1288;-72
2023/10/07 01:39:42;;;;;;;8.77;4.55;;;;;;;;;;473077;28;1488;-71
2023/10/07 01:39:57;;;;;;;7.95;4.60;;;;;;;;;;476624;28;987;-71
2023/10/07 01:40:16;;;;;;;7.68;4.55;;;;;;;;;;472526;28;1119;-71
2023/10/07 01:40:41;;;;;;;7.78;4.05;;;;;;;;;;475149;29;1098;-71
2023/10/07 01:41:05;;;;;;;9.23;4.33;;;;;;;;;;471538;29;1283;-70
2023/10/07 01:41:27;;;;;;;8.32;4.50;;;;;;;;;;469759;29;1277;-72
2023/10/07 01:41:45;;;;;;;7.95;4.60;;;;;;;;;;470654;29;1538;-71
2023/10/07 01:42:01;;;;;;;7.75;4.50;;;;;;;;;;473983;29;1297;-71
2023/10/07 01:42:36;;;;;;;7.63;4.40;;;;;;;;;;467661;29;914;-72
2023/10/07 01:42:53;;;;;;;8.35;4.28;;;;;;;;;;472230;29;899;-71
2023/10/07 01:43:08;;;;;;;10.13;4.57;;;;;;;;;;468837;29;1009;-71
2023/10/07 01:43:24;;;;;;;9.60;4.35;;;;;;;;;;469485;29;1447;-72
2023/10/07 01:43:41;;;;;;;7.72;4.03;;;;;;;;;;469591;29;1035;-71
2023/10/07 01:44:15;;;;;;;9.98;4.47;;;;;;;;;;462368;29;1168;-71
2023/10/07 01:44:32;;;;;;;9.65;4.57;;;;;;;;;;470049;29;1256;-71
2023/10/07 01:44:49;;;;;;;8.13;4.28;;;;;;;;;;463862;29;1099;-71
2023/10/07 01:45:20;;;;;;;7.68;4.03;;;;;;;;;;463331;29;1026;-71
2023/10/07 01:45:39;;;;;;;8.30;4.65;;;;;;;;;;468883;29;1082;-71
2023/10/07 01:45:55;;;;;;;7.32;4.40;;;;;;;;;;462097;29;1173;-71
2023/10/07 01:46:13;;;;;;;6.67;4.10;;;;;;;;;;465011;29;1140;-71
2023/10/07 01:46:32;;;;;;;7.53;4.30;;;;;;;;;;470612;29;1073;-72
2023/10/07 01:46:47;;;;;;;8.18;4.28;;;;;;;;;;465910;29;1250;-71
2023/10/07 01:47:23;;;;;;;5.50;3.90;;;;;;;;;;469732;29;871;-71
2023/10/07 01:47:39;;;;;;;6.95;4.07;;;;;;;;;;470474;29;1146;-72
2023/10/07 01:47:55;;;;;;;7.93;4.22;;;;;;;;;;470772;29;1167;-71
2023/10/07 01:48:17;;;;;;;6.85;4.20;;;;;;;;;;467376;29;1084;-72
2023/10/07 01:48:35;;;;;;;7.25;4.30;;;;;;;;;;470878;29;1495;-72
2023/10/07 01:48:57;;;;;;;7.97;4.40;;;;;;;;;;467507;29;1422;-71
2023/10/07 01:49:16;;;;;;;8.93;4.43;;;;;;;;;;467064;29;1219;-71
2023/10/07 01:49:33;;;;;;;7.70;4.20;;;;;;;;;;471088;29;1323;-70
2023/10/07 01:49:53;;;;;;;7.05;4.20;;;;;;;;;;471699;29;1286;-71
2023/10/07 01:50:12;;;;;;;8.90;4.38;;;;;;;;;;471907;29;1446;-70
2023/10/07 01:50:32;;;;;;;9.48;4.35;;;;;;;;;;474425;29;1000;-71
2023/10/07 01:50:49;;;;;;;8.57;4.35;;;;;;;;;;468578;29;977;-70
2023/10/07 01:51:05;;;;;;;8.65;4.47;;;;;;;;;;473114;29;1402;-71
2023/10/07 01:51:22;;;;;;;7.90;4.37;;;;;;;;;;470699;29;1119;-71
2023/10/07 01:51:44;;;;;;;7.68;4.30;;;;;;;;;;472933;28;1115;-71
2023/10/07 01:52:03;;;;;;;7.93;4.28;;;;;;;;;;475488;28;915;-71
2023/10/07 01:52:18;;;;;;;6.72;4.07;;;;;;;;;;466714;29;1153;-71
2023/10/07 01:52:34;;;;;;;6.93;4.10;;;;;;;;;;473915;29;1068;-71
2023/10/07 01:52:55;;;;;;;7.20;4.20;;;;;;;;;;470703;29;1292;-72
2023/10/07 01:53:16;;;;;;;7.90;4.30;;;;;;;;;;470101;29;1034;-72
2023/10/07 01:53:34;;;;;;;6.47;4.13;;;;;;;;;;473516;29;1724;-73
2023/10/07 01:53:49;;;;;;;7.55;4.40;;;;;;;;;;470671;29;1363;-71
2023/10/07 01:54:08;;;;;;;8.35;4.57;;;;;;;;;;470985;29;1056;-70
2023/10/07 01:54:28;;;;;;;7.70;4.53;;;;;;;;;;470774;28;1194;-71
2023/10/07 01:54:45;;;;;;;6.75;4.20;;;;;;;;;;467894;29;1557;-71
2023/10/07 01:55:00;;;;;;;6.90;4.22;;;;;;;;;;471910;29;957;-71
2023/10/07 01:55:19;;;;;;;7.63;4.50;;;;;;;;;;470083;29;1145;-71
2023/10/07 01:55:47;;;;;;;7.78;4.43;;;;;;;;;;471366;29;1094;-72
2023/10/07 01:56:05;;;;;;;8.75;4.50;;;;;;;;;;468131;29;979;-71
2023/10/07 01:56:20;;;;;;;8.05;4.32;;;;;;;;;;470117;29;1185;-71
2023/10/07 01:56:38;;;;;;;8.75;4.60;;;;;;;;;;472889;29;1089;-71
2023/10/07 01:56:53;;;;;;;8.38;4.40;;;;;;;;;;469340;28;1515;-71
2023/10/07 01:57:09;;;;;;;9.30;4.60;;;;;;;;;;471905;28;1174;-70
2023/10/07 01:57:26;;;;;;;8.65;4.78;;;;;;;;;;474277;28;1215;-71
2023/10/07 01:57:44;;;;;;;7.78;4.50;;;;;;;;;;472909;28;1254;-71
2023/10/07 01:57:59;;;;;;;8.07;4.30;;;;;;;;;;466948;28;1395;-71
2023/10/07 01:58:19;;;;;;;7.55;4.10;;;;;;;;;;467107;29;1302;-72
2023/10/07 01:58:35;;;;;;;7.00;4.10;;;;;;;;;;470982;29;1350;-70
2023/10/07 01:58:50;;;;;;;7.55;4.35;;;;;;;;;;464921;29;1258;-70
2023/10/07 01:59:29;;;;;;;6.70;4.20;;;;;;;;;;472778;29;1014;-71
2023/10/07 01:59:45;;;;;;;7.97;4.35;;;;;;;;;;467061;29;1073;-70
2023/10/07 02:00:06;;;;;;;7.87;4.23;;;;;;;;;;467057;29;1065;-70
2023/10/07 02:01:16;;;;;;;8.25;4.25;;;;;;;;;;460031;29;929;-71
2023/10/07 02:01:32;;;;;;;6.82;4.00;;;;;;;;;;466300;29;1360;-71
2023/10/07 02:01:58;;;;;;;8.27;4.18;;;;;;;;;;464531;29;1249;-71
2023/10/07 02:02:15;;;;;;;8.30;4.07;;;;;;;;;;464178;29;1096;-70
2023/10/07 02:02:31;;;;;;;6.57;3.80;;;;;;;;;;468845;29;1016;-71
2023/10/07 02:02:49;;;;;;;9.35;4.22;;;;;;;;;;463916;29;1193;-70
2023/10/07 02:03:08;;;;;;;9.98;4.43;;;;;;;;;;466294;29;1507;-70
2023/10/07 02:03:24;;;;;;;9.27;4.55;;;;;;;;;;464288;29;966;-71
2023/10/07 02:03:43;;;;;;;8.60;4.43;;;;;;;;;;466364;29;1314;-70
2023/10/07 02:03:59;;;;;;;7.90;4.28;;;;;;;;;;468109;29;1386;-71
2023/10/07 02:04:18;;;;;;;8.10;4.10;;;;;;;;;;463795;29;987;-71
2023/10/07 02:04:36;;;;;;;7.90;4.30;;;;;;;;;;468876;29;1265;-70
2023/10/07 02:04:55;;;;;;;8.98;4.50;;;;;;;;;;461994;29;1255;-71
2023/10/07 02:05:11;;;;;;;7.65;4.30;;;;;;;;;;464294;29;1271;-70
2023/10/07 02:05:39;;;;;;;7.40;3.97;;;;;;;;;;464643;29;1220;-70
2023/10/07 02:05:55;;;;;;;7.65;4.47;;;;;;;;;;466801;29;1171;-71
2023/10/07 02:06:11;;;;;;;8.60;4.60;;;;;;;;;;462852;29;1065;-70
2023/10/07 02:06:28;;;;;;;8.75;4.40;;;;;;;;;;464628;29;1341;-71
2023/10/07 02:06:51;;;;;;;7.68;4.30;;;;;;;;;;460398;29;1132;-70
2023/10/07 02:07:18;;;;;;;7.95;4.40;;;;;;;;;;462636;29;1117;-71
2023/10/07 02:07:36;;;;;;;9.15;4.43;;;;;;;;;;461043;29;1772;-70
2023/10/07 02:08:03;;;;;;;7.82;4.40;;;;;;;;;;461902;29;1041;-71
2023/10/07 02:08:37;;;;;;;8.80;4.40;;;;;;;;;;459719;29;1397;-71
2023/10/07 02:09:26;;;;;;;8.52;4.28;;;;;;;;;;456700;29;983;-71
2023/10/07 02:09:42;;;;;;;6.97;4.20;;;;;;;;;;459812;29;1170;-70
2023/10/07 02:10:00;;;;;;;7.68;4.18;;;;;;;;;;465541;29;960;-71
2023/10/07 02:10:26;;;;;;;8.25;4.38;;;;;;;;;;460646;29;1133;-70
2023/10/07 02:10:41;;;;;;;7.25;4.28;;;;;;;;;;467471;29;1496;-70
2023/10/07 02:10:58;;;;;;;7.10;4.30;;;;;;;;;;464700;29;1426;-71
2023/10/07 02:11:18;;;;;;;6.15;4.30;;;;;;;;;;458277;29;1121;-70
2023/10/07 02:11:36;;;;;;;6.43;4.18;;;;;;;;;;465529;29;1149;-70
2023/10/07 02:11:53;;;;;;;6.03;4.15;;;;;;;;;;460701;29;1178;-70
2023/10/07 02:12:16;;;;;;;6.30;4.00;;;;;;;;;;467665;29;1342;-71
2023/10/07 02:12:33;;;;;;;7.72;4.03;;;;;;;;;;470840;29;1002;-71
2023/10/07 02:12:52;;;;;;;7.40;3.93;;;;;;;;;;465512;29;1950;-70
2023/10/07 02:13:14;;;;;;;8.32;4.20;;;;;;;;;;468357;29;1146;-70
2023/10/07 02:13:30;;;;;;;7.97;4.20;;;;;;;;;;472520;29;1608;-71
2023/10/07 02:13:45;;;;;;;7.28;4.53;;;;;;;;;;471115;29;1226;-70
2023/10/07 02:14:02;;;;;;;7.97;4.70;;;;;;;;;;466191;29;943;-70
2023/10/07 02:14:21;;;;;;;7.38;4.25;;;;;;;;;;469147;29;1313;-71
2023/10/07 02:14:37;;;;;;;6.30;4.13;;;;;;;;;;473174;29;1049;-71